sensor_id;sensor_type;location;lat;lon;timestamp;P1;durP1;ratioP1;P2;durP2;ratioP2
36185;SDS011;22228;53.222;7.446;2023-05-01T00:02:03;8.13;;;6.00;;
36185;SDS011;22228;53.222;7.446;2023-05-01T00:04:25;5.93;;;5.33;;
36185;SDS011;22228;53.222;7.446;2023-05-01T00:07:10;5.70;;;5.20;;
36185;SDS011;22228;53.222;7.446;2023-05-01T00:09:56;9.00;;;6.37;;
36185;SDS011;22228;53.222;7.446;2023-05-01T00:12:17;9.03;;;6.30;;
36185;SDS011;22228;53.222;7.446;2023-05-01T00:14:37;8.07;;;6.00;;
36185;SDS011;22228;53.222;7.446;2023-05-01T03:02:04;13.03;;;9.33;;
36185;SDS011;22228;53.222;7.446;2023-05-01T03:04:29;12.13;;;8.53;;
36185;SDS011;22228;53.222;7.446;2023-05-01T03:06:50;10.70;;;8.57;;
36185;SDS011;22228;53.222;7.446;2023-05-01T03:09:18;10.83;;;9.10;;
36185;SDS011;22228;53.222;7.446;2023-05-01T03:11:38;12.27;;;8.30;;
36185;SDS011;22228;53.222;7.446;2023-05-01T03:14:02;8.70;;;7.80;;
36185;SDS011;22228;53.222;7.446;2023-05-01T03:16:17;10.17;;;7.83;;
36185;SDS011;22228;53.222;7.446;2023-05-01T03:18:43;10.77;;;8.10;;
36185;SDS011;22228;53.222;7.446;2023-05-01T03:21:06;12.97;;;9.03;;
36185;SDS011;22228;53.222;7.446;2023-05-01T03:23:30;13.77;;;7.77;;
36185;SDS011;22228;53.222;7.446;2023-05-01T03:25:57;10.33;;;8.27;;
36185;SDS011;22228;53.222;7.446;2023-05-01T03:28:43;13.23;;;9.13;;
36185;SDS011;22228;53.222;7.446;2023-05-01T03:31:05;12.60;;;8.53;;
36185;SDS011;22228;53.222;7.446;2023-05-01T03:33:26;12.37;;;8.57;;
36185;SDS011;22228;53.222;7.446;2023-05-01T03:35:50;11.83;;;8.37;;
36185;SDS011;22228;53.222;7.446;2023-05-01T03:38:19;11.07;;;8.83;;
36185;SDS011;22228;53.222;7.446;2023-05-01T03:44:05;9.60;;;8.17;;
36185;SDS011;22228;53.222;7.446;2023-05-01T03:46:30;11.77;;;9.13;;
36185;SDS011;22228;53.222;7.446;2023-05-01T03:48:55;13.63;;;8.73;;
36185;SDS011;22228;53.222;7.446;2023-05-01T03:51:24;11.70;;;8.57;;
36185;SDS011;22228;53.222;7.446;2023-05-01T03:53:48;13.57;;;9.70;;
36185;SDS011;22228;53.222;7.446;2023-05-01T04:02:16;11.37;;;9.17;;
36185;SDS011;22228;53.222;7.446;2023-05-01T04:04:38;16.83;;;9.87;;
36185;SDS011;22228;53.222;7.446;2023-05-01T04:07:00;14.57;;;9.20;;
36185;SDS011;22228;53.222;7.446;2023-05-01T04:09:27;15.97;;;10.23;;
36185;SDS011;22228;53.222;7.446;2023-05-01T04:11:50;12.00;;;9.13;;
36185;SDS011;22228;53.222;7.446;2023-05-01T04:14:12;15.63;;;11.00;;
36185;SDS011;22228;53.222;7.446;2023-05-01T04:16:38;11.47;;;9.80;;
36185;SDS011;22228;53.222;7.446;2023-05-01T04:19:00;16.20;;;10.27;;
36185;SDS011;22228;53.222;7.446;2023-05-01T04:21:22;11.23;;;9.67;;
36185;SDS011;22228;53.222;7.446;2023-05-01T04:23:46;12.10;;;10.37;;
36185;SDS011;22228;53.222;7.446;2023-05-01T04:26:10;14.03;;;9.40;;
36185;SDS011;22228;53.222;7.446;2023-05-01T04:28:32;12.37;;;10.00;;
36185;SDS011;22228;53.222;7.446;2023-05-01T04:30:53;13.87;;;10.23;;
36185;SDS011;22228;53.222;7.446;2023-05-01T04:33:15;11.57;;;9.80;;
36185;SDS011;22228;53.222;7.446;2023-05-01T04:35:35;15.70;;;10.33;;
36185;SDS011;22228;53.222;7.446;2023-05-01T04:38:22;13.93;;;10.70;;
36185;SDS011;22228;53.222;7.446;2023-05-01T04:40:54;16.77;;;11.13;;
36185;SDS011;22228;53.222;7.446;2023-05-01T04:43:16;14.33;;;10.83;;
36185;SDS011;22228;53.222;7.446;2023-05-01T04:45:37;15.80;;;10.03;;
36185;SDS011;22228;53.222;7.446;2023-05-01T04:48:05;16.37;;;10.47;;
36185;SDS011;22228;53.222;7.446;2023-05-01T04:50:33;15.23;;;10.33;;
36185;SDS011;22228;53.222;7.446;2023-05-01T04:52:59;14.03;;;10.83;;
36185;SDS011;22228;53.222;7.446;2023-05-01T04:55:20;13.17;;;9.47;;
36185;SDS011;22228;53.222;7.446;2023-05-01T04:58:07;12.80;;;9.30;;
36185;SDS011;22228;53.222;7.446;2023-05-01T05:00:28;11.07;;;9.00;;
36185;SDS011;22228;53.222;7.446;2023-05-01T05:02:51;12.97;;;8.70;;
36185;SDS011;22228;53.222;7.446;2023-05-01T05:05:12;14.07;;;9.80;;
36185;SDS011;22228;53.222;7.446;2023-05-01T05:07:32;14.43;;;9.73;;
36185;SDS011;22228;53.222;7.446;2023-05-01T05:10:25;11.67;;;9.30;;
36185;SDS011;22228;53.222;7.446;2023-05-01T05:13:03;9.93;;;8.87;;
36185;SDS011;22228;53.222;7.446;2023-05-01T05:15:25;11.67;;;9.43;;
36185;SDS011;22228;53.222;7.446;2023-05-01T05:17:45;14.00;;;9.43;;
36185;SDS011;22228;53.222;7.446;2023-05-01T05:20:31;11.17;;;8.97;;
36185;SDS011;22228;53.222;7.446;2023-05-01T05:23:16;13.00;;;8.47;;
36185;SDS011;22228;53.222;7.446;2023-05-01T05:26:03;11.33;;;8.30;;
36185;SDS011;22228;53.222;7.446;2023-05-01T05:28:49;11.77;;;9.37;;
36185;SDS011;22228;53.222;7.446;2023-05-01T05:31:11;11.10;;;9.07;;
36185;SDS011;22228;53.222;7.446;2023-05-01T05:33:59;11.20;;;8.30;;
36185;SDS011;22228;53.222;7.446;2023-05-01T05:36:20;11.47;;;8.80;;
36185;SDS011;22228;53.222;7.446;2023-05-01T05:38:42;12.17;;;8.43;;
36185;SDS011;22228;53.222;7.446;2023-05-01T05:41:06;12.03;;;8.47;;
36185;SDS011;22228;53.222;7.446;2023-05-01T05:43:30;10.90;;;8.47;;
36185;SDS011;22228;53.222;7.446;2023-05-01T05:45:57;9.87;;;7.73;;
36185;SDS011;22228;53.222;7.446;2023-05-01T05:48:45;9.80;;;8.40;;
36185;SDS011;22228;53.222;7.446;2023-05-01T05:51:07;10.80;;;8.50;;
36185;SDS011;22228;53.222;7.446;2023-05-01T05:53:28;9.00;;;8.10;;
36185;SDS011;22228;53.222;7.446;2023-05-01T05:55:50;13.07;;;9.07;;
36185;SDS011;22228;53.222;7.446;2023-05-01T05:58:11;11.77;;;8.00;;
36185;SDS011;22228;53.222;7.446;2023-05-01T06:00:58;13.07;;;8.30;;
36185;SDS011;22228;53.222;7.446;2023-05-01T06:03:20;11.20;;;8.03;;
36185;SDS011;22228;53.222;7.446;2023-05-01T06:05:45;11.00;;;8.20;;
36185;SDS011;22228;53.222;7.446;2023-05-01T06:08:31;11.17;;;8.10;;
36185;SDS011;22228;53.222;7.446;2023-05-01T06:10:53;11.27;;;7.90;;
36185;SDS011;22228;53.222;7.446;2023-05-01T06:13:21;11.97;;;8.70;;
36185;SDS011;22228;53.222;7.446;2023-05-01T06:15:48;9.80;;;7.97;;
36185;SDS011;22228;53.222;7.446;2023-05-01T06:18:33;13.80;;;7.90;;
36185;SDS011;22228;53.222;7.446;2023-05-01T06:20:56;11.37;;;8.23;;
36185;SDS011;22228;53.222;7.446;2023-05-01T06:23:43;9.57;;;7.73;;
36185;SDS011;22228;53.222;7.446;2023-05-01T06:26:15;9.70;;;7.63;;
36185;SDS011;22228;53.222;7.446;2023-05-01T06:28:36;9.83;;;7.67;;
36185;SDS011;22228;53.222;7.446;2023-05-01T06:30:58;8.00;;;7.20;;
36185;SDS011;22228;53.222;7.446;2023-05-01T06:33:44;9.77;;;7.63;;
36185;SDS011;22228;53.222;7.446;2023-05-01T06:36:29;9.50;;;7.27;;
36185;SDS011;22228;53.222;7.446;2023-05-01T06:38:55;8.37;;;7.57;;
36185;SDS011;22228;53.222;7.446;2023-05-01T06:41:16;10.37;;;7.57;;
36185;SDS011;22228;53.222;7.446;2023-05-01T06:43:37;9.93;;;7.13;;
36185;SDS011;22228;53.222;7.446;2023-05-01T06:46:00;11.20;;;7.57;;
36185;SDS011;22228;53.222;7.446;2023-05-01T06:48:21;9.47;;;7.37;;
36185;SDS011;22228;53.222;7.446;2023-05-01T06:50:44;9.73;;;6.73;;
36185;SDS011;22228;53.222;7.446;2023-05-01T06:53:34;7.87;;;6.90;;
36185;SDS011;22228;53.222;7.446;2023-05-01T06:58:42;7.60;;;6.90;;
36185;SDS011;22228;53.222;7.446;2023-05-01T07:01:04;7.90;;;6.90;;
36185;SDS011;22228;53.222;7.446;2023-05-01T07:03:34;10.00;;;7.63;;
36185;SDS011;22228;53.222;7.446;2023-05-01T07:05:55;10.43;;;6.90;;
36185;SDS011;22228;53.222;7.446;2023-05-01T07:08:22;6.67;;;6.07;;
36185;SDS011;22228;53.222;7.446;2023-05-01T07:10:51;8.03;;;6.77;;
36185;SDS011;22228;53.222;7.446;2023-05-01T07:13:12;8.40;;;7.07;;
36185;SDS011;22228;53.222;7.446;2023-05-01T07:15:39;12.63;;;10.37;;
36185;SDS011;22228;53.222;7.446;2023-05-01T07:20:53;15.90;;;11.83;;
36185;SDS011;22228;53.222;7.446;2023-05-01T07:23:14;7.30;;;6.20;;
36185;SDS011;22228;53.222;7.446;2023-05-01T07:25:35;8.60;;;6.03;;
36185;SDS011;22228;53.222;7.446;2023-05-01T07:27:57;8.50;;;6.03;;
36185;SDS011;22228;53.222;7.446;2023-05-01T07:30:21;6.60;;;5.97;;
36185;SDS011;22228;53.222;7.446;2023-05-01T07:32:42;6.27;;;5.67;;
36185;SDS011;22228;53.222;7.446;2023-05-01T07:35:03;6.30;;;5.70;;
36185;SDS011;22228;53.222;7.446;2023-05-01T07:37:24;8.17;;;6.23;;
36185;SDS011;22228;53.222;7.446;2023-05-01T07:39:45;5.70;;;5.20;;
36185;SDS011;22228;53.222;7.446;2023-05-01T07:42:06;7.43;;;5.33;;
36185;SDS011;22228;53.222;7.446;2023-05-01T07:44:28;8.97;;;5.33;;
36185;SDS011;22228;53.222;7.446;2023-05-01T07:46:57;5.67;;;5.03;;
36185;SDS011;22228;53.222;7.446;2023-05-01T07:49:48;5.57;;;4.93;;
36185;SDS011;22228;53.222;7.446;2023-05-01T07:52:15;5.87;;;5.03;;
36185;SDS011;22228;53.222;7.446;2023-05-01T07:54:37;6.63;;;4.70;;
36185;SDS011;22228;53.222;7.446;2023-05-01T07:56:58;7.80;;;5.90;;
36185;SDS011;22228;53.222;7.446;2023-05-01T07:59:21;5.23;;;4.60;;
36185;SDS011;22228;53.222;7.446;2023-05-01T08:01:51;5.23;;;4.33;;
36185;SDS011;22228;53.222;7.446;2023-05-01T08:04:12;5.97;;;5.13;;
36185;SDS011;22228;53.222;7.446;2023-05-01T08:06:35;4.77;;;4.20;;
36185;SDS011;22228;53.222;7.446;2023-05-01T08:09:21;4.20;;;3.80;;
36185;SDS011;22228;53.222;7.446;2023-05-01T08:11:43;4.57;;;4.03;;
36185;SDS011;22228;53.222;7.446;2023-05-01T08:14:07;6.57;;;4.40;;
36185;SDS011;22228;53.222;7.446;2023-05-01T08:16:34;6.10;;;4.23;;
36185;SDS011;22228;53.222;7.446;2023-05-01T08:18:57;4.93;;;4.37;;
36185;SDS011;22228;53.222;7.446;2023-05-01T08:21:25;3.80;;;3.50;;
36185;SDS011;22228;53.222;7.446;2023-05-01T08:23:46;5.07;;;4.27;;
36185;SDS011;22228;53.222;7.446;2023-05-01T08:26:09;4.97;;;3.93;;
36185;SDS011;22228;53.222;7.446;2023-05-01T08:28:36;5.27;;;4.03;;
36185;SDS011;22228;53.222;7.446;2023-05-01T08:30:57;6.93;;;4.83;;
36185;SDS011;22228;53.222;7.446;2023-05-01T08:33:18;5.73;;;3.87;;
36185;SDS011;22228;53.222;7.446;2023-05-01T08:35:40;5.40;;;3.87;;
36185;SDS011;22228;53.222;7.446;2023-05-01T08:38:31;4.47;;;3.67;;
36185;SDS011;22228;53.222;7.446;2023-05-01T08:41:00;4.80;;;3.60;;
36185;SDS011;22228;53.222;7.446;2023-05-01T08:43:21;5.60;;;3.90;;
36185;SDS011;22228;53.222;7.446;2023-05-01T08:45:46;4.47;;;3.77;;
36185;SDS011;22228;53.222;7.446;2023-05-01T08:48:07;4.23;;;3.83;;
36185;SDS011;22228;53.222;7.446;2023-05-01T08:50:29;6.13;;;4.23;;
36185;SDS011;22228;53.222;7.446;2023-05-01T08:52:54;4.47;;;4.07;;
36185;SDS011;22228;53.222;7.446;2023-05-01T08:55:16;5.27;;;4.23;;
36185;SDS011;22228;53.222;7.446;2023-05-01T08:57:46;4.57;;;4.03;;
36185;SDS011;22228;53.222;7.446;2023-05-01T09:00:13;4.87;;;4.13;;
36185;SDS011;22228;53.222;7.446;2023-05-01T09:02:36;4.03;;;3.63;;
36185;SDS011;22228;53.222;7.446;2023-05-01T09:04:59;4.10;;;3.57;;
36185;SDS011;22228;53.222;7.446;2023-05-01T09:07:22;4.00;;;3.70;;
36185;SDS011;22228;53.222;7.446;2023-05-01T09:09:51;3.87;;;3.50;;
36185;SDS011;22228;53.222;7.446;2023-05-01T09:12:16;4.33;;;3.37;;
36185;SDS011;22228;53.222;7.446;2023-05-01T09:14:43;4.33;;;3.70;;
36185;SDS011;22228;53.222;7.446;2023-05-01T09:17:04;4.33;;;3.70;;
36185;SDS011;22228;53.222;7.446;2023-05-01T09:19:25;5.90;;;3.90;;
36185;SDS011;22228;53.222;7.446;2023-05-01T09:22:10;5.43;;;3.77;;
36185;SDS011;22228;53.222;7.446;2023-05-01T09:27:22;5.13;;;4.03;;
36185;SDS011;22228;53.222;7.446;2023-05-01T09:29:43;4.70;;;4.30;;
36185;SDS011;22228;53.222;7.446;2023-05-01T09:32:14;5.73;;;4.40;;
36185;SDS011;22228;53.222;7.446;2023-05-01T09:34:35;5.17;;;4.53;;
36185;SDS011;22228;53.222;7.446;2023-05-01T09:37:24;5.97;;;3.90;;
36185;SDS011;22228;53.222;7.446;2023-05-01T09:39:46;7.37;;;3.83;;
36185;SDS011;22228;53.222;7.446;2023-05-01T09:42:08;5.10;;;3.90;;
36185;SDS011;22228;53.222;7.446;2023-05-01T09:44:39;4.57;;;3.87;;
36185;SDS011;22228;53.222;7.446;2023-05-01T09:47:02;5.33;;;4.00;;
36185;SDS011;22228;53.222;7.446;2023-05-01T09:52:13;5.47;;;4.20;;
36185;SDS011;22228;53.222;7.446;2023-05-01T09:54:41;5.13;;;4.57;;
36185;SDS011;22228;53.222;7.446;2023-05-01T09:57:03;6.50;;;4.23;;
36185;SDS011;22228;53.222;7.446;2023-05-01T09:59:31;5.53;;;4.70;;
36185;SDS011;22228;53.222;7.446;2023-05-01T10:01:53;5.63;;;4.73;;
36185;SDS011;22228;53.222;7.446;2023-05-01T10:04:14;5.13;;;4.60;;
36185;SDS011;22228;53.222;7.446;2023-05-01T10:06:35;6.87;;;4.63;;
36185;SDS011;22228;53.222;7.446;2023-05-01T10:09:27;8.90;;;5.63;;
36185;SDS011;22228;53.222;7.446;2023-05-01T10:11:50;5.77;;;5.27;;
36185;SDS011;22228;53.222;7.446;2023-05-01T10:14:49;6.70;;;5.47;;
36185;SDS011;22228;53.222;7.446;2023-05-01T10:17:15;5.77;;;5.00;;
36185;SDS011;22228;53.222;7.446;2023-05-01T10:19:38;6.13;;;4.87;;
36185;SDS011;22228;53.222;7.446;2023-05-01T10:21:58;5.63;;;5.00;;
36185;SDS011;22228;53.222;7.446;2023-05-01T10:24:23;6.03;;;5.40;;
36185;SDS011;22228;53.222;7.446;2023-05-01T10:27:10;5.73;;;4.73;;
36185;SDS011;22228;53.222;7.446;2023-05-01T10:29:33;5.63;;;5.03;;
36185;SDS011;22228;53.222;7.446;2023-05-01T10:31:55;6.47;;;5.50;;
36185;SDS011;22228;53.222;7.446;2023-05-01T10:34:18;6.57;;;5.40;;
36185;SDS011;22228;53.222;7.446;2023-05-01T10:36:43;7.07;;;5.07;;
36185;SDS011;22228;53.222;7.446;2023-05-01T10:39:16;6.60;;;5.37;;
36185;SDS011;22228;53.222;7.446;2023-05-01T10:42:19;5.10;;;4.70;;
36185;SDS011;22228;53.222;7.446;2023-05-01T10:44:40;6.00;;;4.40;;
36185;SDS011;22228;53.222;7.446;2023-05-01T10:50:08;4.70;;;4.10;;
36185;SDS011;22228;53.222;7.446;2023-05-01T10:55:36;4.73;;;3.90;;
36185;SDS011;22228;53.222;7.446;2023-05-01T10:57:58;4.30;;;3.90;;
36185;SDS011;22228;53.222;7.446;2023-05-01T11:00:19;5.20;;;3.60;;
36185;SDS011;22228;53.222;7.446;2023-05-01T11:02:48;6.57;;;4.43;;
36185;SDS011;22228;53.222;7.446;2023-05-01T11:05:10;7.30;;;3.77;;
36185;SDS011;22228;53.222;7.446;2023-05-01T11:07:32;4.77;;;4.23;;
36185;SDS011;22228;53.222;7.446;2023-05-01T11:09:54;4.83;;;4.20;;
36185;SDS011;22228;53.222;7.446;2023-05-01T11:15:12;6.07;;;4.23;;
36185;SDS011;22228;53.222;7.446;2023-05-01T11:17:45;5.07;;;4.13;;
36185;SDS011;22228;53.222;7.446;2023-05-01T11:23:08;7.17;;;4.33;;
36185;SDS011;22228;53.222;7.446;2023-05-01T11:25:42;4.53;;;3.83;;
36185;SDS011;22228;53.222;7.446;2023-05-01T11:28:30;4.57;;;3.77;;
36185;SDS011;22228;53.222;7.446;2023-05-01T11:30:53;5.30;;;4.00;;
36185;SDS011;22228;53.222;7.446;2023-05-01T11:33:22;4.57;;;3.37;;
36185;SDS011;22228;53.222;7.446;2023-05-01T11:35:47;4.87;;;3.30;;
36185;SDS011;22228;53.222;7.446;2023-05-01T11:41:10;3.30;;;2.47;;
36185;SDS011;22228;53.222;7.446;2023-05-01T11:43:32;3.17;;;1.70;;
36185;SDS011;22228;53.222;7.446;2023-05-01T11:45:53;2.83;;;2.57;;
36185;SDS011;22228;53.222;7.446;2023-05-01T11:48:19;3.83;;;3.30;;
36185;SDS011;22228;53.222;7.446;2023-05-01T11:50:41;4.53;;;3.20;;
36185;SDS011;22228;53.222;7.446;2023-05-01T11:53:10;3.40;;;3.10;;
36185;SDS011;22228;53.222;7.446;2023-05-01T11:55:33;3.80;;;3.47;;
36185;SDS011;22228;53.222;7.446;2023-05-01T11:58:01;3.87;;;3.30;;
36185;SDS011;22228;53.222;7.446;2023-05-01T12:00:27;5.47;;;2.83;;
36185;SDS011;22228;53.222;7.446;2023-05-01T12:02:56;3.47;;;2.73;;
36185;SDS011;22228;53.222;7.446;2023-05-01T12:05:19;3.30;;;2.80;;
36185;SDS011;22228;53.222;7.446;2023-05-01T12:10:31;5.63;;;3.57;;
36185;SDS011;22228;53.222;7.446;2023-05-01T12:12:53;4.57;;;3.20;;
36185;SDS011;22228;53.222;7.446;2023-05-01T12:15:14;6.23;;;3.40;;
36185;SDS011;22228;53.222;7.446;2023-05-01T12:17:35;4.40;;;2.53;;
36185;SDS011;22228;53.222;7.446;2023-05-01T12:19:57;4.13;;;2.67;;
36185;SDS011;22228;53.222;7.446;2023-05-01T12:22:23;4.73;;;1.93;;
36185;SDS011;22228;53.222;7.446;2023-05-01T12:24:49;2.30;;;1.50;;
36185;SDS011;22228;53.222;7.446;2023-05-01T12:27:11;3.27;;;1.20;;
36185;SDS011;22228;53.222;7.446;2023-05-01T12:29:38;3.43;;;1.40;;
36185;SDS011;22228;53.222;7.446;2023-05-01T12:32:05;4.77;;;1.40;;
36185;SDS011;22228;53.222;7.446;2023-05-01T12:34:30;4.73;;;1.60;;
36185;SDS011;22228;53.222;7.446;2023-05-01T12:36:51;3.00;;;1.30;;
36185;SDS011;22228;53.222;7.446;2023-05-01T12:39:39;4.00;;;1.40;;
36185;SDS011;22228;53.222;7.446;2023-05-01T12:42:03;3.63;;;1.10;;
36185;SDS011;22228;53.222;7.446;2023-05-01T12:44:32;2.93;;;1.43;;
36185;SDS011;22228;53.222;7.446;2023-05-01T12:46:55;2.50;;;1.40;;
36185;SDS011;22228;53.222;7.446;2023-05-01T12:49:22;1.40;;;1.17;;
36185;SDS011;22228;53.222;7.446;2023-05-01T12:51:45;2.80;;;1.43;;
36185;SDS011;22228;53.222;7.446;2023-05-01T12:54:35;2.00;;;1.50;;
36185;SDS011;22228;53.222;7.446;2023-05-01T12:57:08;3.40;;;1.20;;
36185;SDS011;22228;53.222;7.446;2023-05-01T12:59:58;2.57;;;1.83;;
36185;SDS011;22228;53.222;7.446;2023-05-01T13:02:43;3.13;;;1.50;;
36185;SDS011;22228;53.222;7.446;2023-05-01T13:05:04;3.03;;;1.50;;
36185;SDS011;22228;53.222;7.446;2023-05-01T13:07:33;3.23;;;2.33;;
36185;SDS011;22228;53.222;7.446;2023-05-01T13:09:54;3.80;;;2.13;;
36185;SDS011;22228;53.222;7.446;2023-05-01T13:12:48;4.67;;;2.70;;
36185;SDS011;22228;53.222;7.446;2023-05-01T13:15:17;3.77;;;2.00;;
36185;SDS011;22228;53.222;7.446;2023-05-01T13:17:43;4.03;;;2.23;;
36185;SDS011;22228;53.222;7.446;2023-05-01T13:20:07;3.43;;;2.10;;
36185;SDS011;22228;53.222;7.446;2023-05-01T13:22:52;4.93;;;2.60;;
36185;SDS011;22228;53.222;7.446;2023-05-01T13:25:16;3.43;;;2.03;;
36185;SDS011;22228;53.222;7.446;2023-05-01T13:28:05;3.13;;;1.50;;
36185;SDS011;22228;53.222;7.446;2023-05-01T13:30:31;2.53;;;1.47;;
36185;SDS011;22228;53.222;7.446;2023-05-01T13:32:52;2.47;;;1.40;;
36185;SDS011;22228;53.222;7.446;2023-05-01T13:35:21;3.07;;;1.77;;
36185;SDS011;22228;53.222;7.446;2023-05-01T13:37:49;1.60;;;1.10;;
36185;SDS011;22228;53.222;7.446;2023-05-01T13:40:10;3.80;;;1.00;;
36185;SDS011;22228;53.222;7.446;2023-05-01T13:42:55;2.90;;;0.77;;
36185;SDS011;22228;53.222;7.446;2023-05-01T13:45:18;1.37;;;0.50;;
36185;SDS011;22228;53.222;7.446;2023-05-01T13:47:39;1.43;;;0.60;;
36185;SDS011;22228;53.222;7.446;2023-05-01T13:50:01;1.60;;;0.73;;
36185;SDS011;22228;53.222;7.446;2023-05-01T13:52:23;2.23;;;0.80;;
36185;SDS011;22228;53.222;7.446;2023-05-01T13:54:50;0.93;;;0.73;;
36185;SDS011;22228;53.222;7.446;2023-05-01T13:57:15;1.97;;;0.80;;
36185;SDS011;22228;53.222;7.446;2023-05-01T13:59:37;1.03;;;0.80;;
36185;SDS011;22228;53.222;7.446;2023-05-01T14:02:02;2.00;;;0.70;;
36185;SDS011;22228;53.222;7.446;2023-05-01T14:04:41;1.30;;;0.70;;
36185;SDS011;22228;53.222;7.446;2023-05-01T14:07:02;2.80;;;0.83;;
36185;SDS011;22228;53.222;7.446;2023-05-01T14:09:24;1.83;;;0.70;;
36185;SDS011;22228;53.222;7.446;2023-05-01T14:11:47;0.60;;;0.60;;
36185;SDS011;22228;53.222;7.446;2023-05-01T14:14:10;1.70;;;0.53;;
36185;SDS011;22228;53.222;7.446;2023-05-01T14:16:35;1.27;;;0.47;;
36185;SDS011;22228;53.222;7.446;2023-05-01T14:19:00;0.77;;;0.40;;
36185;SDS011;22228;53.222;7.446;2023-05-01T14:21:24;0.80;;;0.40;;
36185;SDS011;22228;53.222;7.446;2023-05-01T14:24:15;1.20;;;0.47;;
36185;SDS011;22228;53.222;7.446;2023-05-01T14:29:32;2.17;;;0.47;;
36185;SDS011;22228;53.222;7.446;2023-05-01T14:31:53;1.23;;;0.60;;
36185;SDS011;22228;53.222;7.446;2023-05-01T14:34:39;1.87;;;0.60;;
36185;SDS011;22228;53.222;7.446;2023-05-01T14:39:52;1.80;;;0.40;;
36185;SDS011;22228;53.222;7.446;2023-05-01T14:42:13;0.83;;;0.70;;
36185;SDS011;22228;53.222;7.446;2023-05-01T14:44:34;2.77;;;0.70;;
36185;SDS011;22228;53.222;7.446;2023-05-01T14:46:59;1.93;;;0.70;;
36185;SDS011;22228;53.222;7.446;2023-05-01T14:49:26;2.77;;;0.77;;
36185;SDS011;22228;53.222;7.446;2023-05-01T14:54:45;1.63;;;0.60;;
36185;SDS011;22228;53.222;7.446;2023-05-01T15:00:31;2.47;;;1.10;;
36185;SDS011;22228;53.222;7.446;2023-05-01T15:02:52;2.00;;;1.00;;
36185;SDS011;22228;53.222;7.446;2023-05-01T15:05:16;1.43;;;1.00;;
36185;SDS011;22228;53.222;7.446;2023-05-01T15:07:45;4.07;;;2.77;;
36185;SDS011;22228;53.222;7.446;2023-05-01T15:10:06;5.00;;;1.20;;
36185;SDS011;22228;53.222;7.446;2023-05-01T15:12:27;2.00;;;1.23;;
36185;SDS011;22228;53.222;7.446;2023-05-01T15:14:48;2.97;;;1.10;;
36185;SDS011;22228;53.222;7.446;2023-05-01T15:17:07;4.20;;;1.10;;
36185;SDS011;22228;53.222;7.446;2023-05-01T15:19:53;2.30;;;1.20;;
36185;SDS011;22228;53.222;7.446;2023-05-01T15:22:15;3.77;;;1.40;;
36185;SDS011;22228;53.222;7.446;2023-05-01T15:25:01;1.53;;;1.03;;
36185;SDS011;22228;53.222;7.446;2023-05-01T15:30:15;3.13;;;1.10;;
36185;SDS011;22228;53.222;7.446;2023-05-01T15:32:36;3.50;;;0.90;;
36185;SDS011;22228;53.222;7.446;2023-05-01T15:35:47;3.03;;;1.10;;
36185;SDS011;22228;53.222;7.446;2023-05-01T15:41:00;1.87;;;0.80;;
36185;SDS011;22228;53.222;7.446;2023-05-01T15:43:45;1.90;;;0.90;;
36185;SDS011;22228;53.222;7.446;2023-05-01T15:46:06;1.57;;;0.90;;
36185;SDS011;22228;53.222;7.446;2023-05-01T15:48:28;1.90;;;0.90;;
36185;SDS011;22228;53.222;7.446;2023-05-01T15:50:49;1.73;;;0.90;;
36185;SDS011;22228;53.222;7.446;2023-05-01T15:53:10;2.47;;;1.13;;
36185;SDS011;22228;53.222;7.446;2023-05-01T15:55:56;3.63;;;0.97;;
36185;SDS011;22228;53.222;7.446;2023-05-01T15:58:50;3.37;;;0.80;;
36185;SDS011;22228;53.222;7.446;2023-05-01T16:01:12;3.53;;;0.90;;
36185;SDS011;22228;53.222;7.446;2023-05-01T16:03:42;1.23;;;0.90;;
36185;SDS011;22228;53.222;7.446;2023-05-01T16:06:04;3.47;;;1.10;;
36185;SDS011;22228;53.222;7.446;2023-05-01T16:08:25;2.80;;;0.90;;
36185;SDS011;22228;53.222;7.446;2023-05-01T16:10:46;2.97;;;0.93;;
36185;SDS011;22228;53.222;7.446;2023-05-01T16:13:08;1.20;;;0.90;;
36185;SDS011;22228;53.222;7.446;2023-05-01T16:15:31;2.13;;;1.00;;
36185;SDS011;22228;53.222;7.446;2023-05-01T16:18:18;1.63;;;0.90;;
36185;SDS011;22228;53.222;7.446;2023-05-01T16:20:41;1.83;;;0.70;;
36185;SDS011;22228;53.222;7.446;2023-05-01T16:23:01;1.83;;;0.97;;
36185;SDS011;22228;53.222;7.446;2023-05-01T16:25:22;4.00;;;0.80;;
36185;SDS011;22228;53.222;7.446;2023-05-01T16:27:43;2.17;;;0.90;;
36185;SDS011;22228;53.222;7.446;2023-05-01T16:30:06;1.20;;;1.07;;
36185;SDS011;22228;53.222;7.446;2023-05-01T16:32:29;1.60;;;1.00;;
36185;SDS011;22228;53.222;7.446;2023-05-01T16:34:52;1.50;;;1.03;;
36185;SDS011;22228;53.222;7.446;2023-05-01T16:37:13;2.33;;;1.50;;
36185;SDS011;22228;53.222;7.446;2023-05-01T16:40:06;1.57;;;1.00;;
36185;SDS011;22228;53.222;7.446;2023-05-01T16:42:28;3.53;;;1.10;;
36185;SDS011;22228;53.222;7.446;2023-05-01T16:44:49;3.03;;;1.10;;
36185;SDS011;22228;53.222;7.446;2023-05-01T16:47:13;5.10;;;1.30;;
36185;SDS011;22228;53.222;7.446;2023-05-01T16:49:36;1.73;;;1.10;;
36185;SDS011;22228;53.222;7.446;2023-05-01T16:52:00;2.27;;;1.77;;
36185;SDS011;22228;53.222;7.446;2023-05-01T16:54:20;1.63;;;1.17;;
36185;SDS011;22228;53.222;7.446;2023-05-01T16:56:42;2.77;;;1.50;;
36185;SDS011;22228;53.222;7.446;2023-05-01T16:59:03;3.03;;;1.17;;
36185;SDS011;22228;53.222;7.446;2023-05-01T17:01:48;2.47;;;1.03;;
36185;SDS011;22228;53.222;7.446;2023-05-01T17:04:33;2.57;;;1.30;;
36185;SDS011;22228;53.222;7.446;2023-05-01T17:06:55;2.27;;;1.23;;
36185;SDS011;22228;53.222;7.446;2023-05-01T17:12:29;2.10;;;1.40;;
36185;SDS011;22228;53.222;7.446;2023-05-01T17:14:50;2.47;;;1.30;;
36185;SDS011;22228;53.222;7.446;2023-05-01T17:17:41;2.00;;;1.20;;
36185;SDS011;22228;53.222;7.446;2023-05-01T17:20:02;2.13;;;1.13;;
36185;SDS011;22228;53.222;7.446;2023-05-01T17:22:26;2.03;;;1.10;;
36185;SDS011;22228;53.222;7.446;2023-05-01T17:24:46;3.77;;;1.10;;
36185;SDS011;22228;53.222;7.446;2023-05-01T17:27:17;3.17;;;1.63;;
36185;SDS011;22228;53.222;7.446;2023-05-01T17:29:39;4.20;;;1.40;;
36185;SDS011;22228;53.222;7.446;2023-05-01T17:31:59;3.93;;;1.73;;
36185;SDS011;22228;53.222;7.446;2023-05-01T17:34:47;3.67;;;2.20;;
36185;SDS011;22228;53.222;7.446;2023-05-01T17:37:11;2.97;;;2.40;;
36185;SDS011;22228;53.222;7.446;2023-05-01T17:39:34;5.90;;;3.50;;
36185;SDS011;22228;53.222;7.446;2023-05-01T17:41:55;5.53;;;3.80;;
36185;SDS011;22228;53.222;7.446;2023-05-01T17:44:16;8.07;;;4.40;;
36185;SDS011;22228;53.222;7.446;2023-05-01T17:46:38;5.70;;;4.40;;
36185;SDS011;22228;53.222;7.446;2023-05-01T17:48:59;9.53;;;4.47;;
36185;SDS011;22228;53.222;7.446;2023-05-01T17:51:23;7.40;;;4.17;;
36185;SDS011;22228;53.222;7.446;2023-05-01T17:53:45;7.57;;;4.93;;
36185;SDS011;22228;53.222;7.446;2023-05-01T17:56:07;8.80;;;5.10;;
36185;SDS011;22228;53.222;7.446;2023-05-01T17:58:28;8.73;;;5.90;;
36185;SDS011;22228;53.222;7.446;2023-05-01T18:00:49;7.47;;;6.70;;
36185;SDS011;22228;53.222;7.446;2023-05-01T18:03:12;9.53;;;6.70;;
36185;SDS011;22228;53.222;7.446;2023-05-01T18:05:33;7.53;;;6.37;;
36185;SDS011;22228;53.222;7.446;2023-05-01T18:07:54;7.60;;;6.67;;
36185;SDS011;22228;53.222;7.446;2023-05-01T18:13:02;8.63;;;6.57;;
36185;SDS011;22228;53.222;7.446;2023-05-01T18:15:23;8.97;;;6.90;;
36185;SDS011;22228;53.222;7.446;2023-05-01T18:17:44;7.57;;;6.43;;
36185;SDS011;22228;53.222;7.446;2023-05-01T18:20:05;7.43;;;6.63;;
36185;SDS011;22228;53.222;7.446;2023-05-01T18:22:26;7.30;;;6.57;;
36185;SDS011;22228;53.222;7.446;2023-05-01T18:24:47;8.23;;;6.30;;
36185;SDS011;22228;53.222;7.446;2023-05-01T18:27:09;6.93;;;6.33;;
36185;SDS011;22228;53.222;7.446;2023-05-01T18:29:31;6.80;;;6.20;;